Time;durP1;ratioP1;P1;durP2;ratioP2;P2;SDS_P1;SDS_P2;PMS_P1;PMS_P2;Temp;Humidity;BMP_temperature;BMP_pressure;BME280_temperature;BME280_humidity;BME280_pressure;Samples;Min_cycle;Max_cycle;Signal;HPM_P1;HPM_P2
2022/12/16 00:00:07;;;;;;;55.73;32.93;;;0.10;1.00;;;;;;4974470;28;20205;-58
2022/12/16 00:02:33;;;;;;;61.77;34.00;;;0.10;1.00;;;;;;4974659;28;20527;-57
2022/12/16 00:04:58;;;;;;;52.70;32.47;;;0.00;1.00;;;;;;4980403;28;20544;-57
2022/12/16 00:07:24;;;;;;;62.30;31.17;;;0.10;1.00;;;;;;4976367;28;22078;-58
2022/12/16 00:09:49;;;;;;;57.57;33.40;;;0.00;1.00;;;;;;4973724;28;20283;-58
2022/12/16 00:12:15;;;;;;;59.07;32.80;;;0.10;1.00;;;;;;4972906;28;20795;-58
2022/12/16 00:14:40;;;;;;;52.13;32.30;;;0.10;1.00;;;;;;4981224;28;20191;-57
2022/12/16 00:17:06;;;;;;;47.53;29.30;;;0.10;1.00;;;;;;4987888;28;20266;-58
2022/12/16 00:19:32;;;;;;;56.00;33.57;;;0.10;1.00;;;;;;4988523;28;20193;-56
2022/12/16 00:21:58;;;;;;;57.07;33.60;;;0.00;1.00;;;;;;4981740;28;20197;-57
2022/12/16 00:24:23;;;;;;;54.00;32.20;;;0.00;1.00;;;;;;4986798;28;20247;-57
2022/12/16 00:26:50;;;;;;;58.07;33.20;;;0.00;1.00;;;;;;4970670;28;20201;-58
2022/12/16 00:29:16;;;;;;;57.37;31.70;;;2.30;1.00;;;;;;4974791;28;20742;-56
2022/12/16 00:31:46;;;;;;;52.00;32.23;;;0.10;1.00;;;;;;4974263;28;20837;-58
2022/12/16 00:34:13;;;;;;;54.97;32.07;;;0.10;1.00;;;;;;4975129;28;20490;-57
2022/12/16 00:36:39;;;;;;;54.87;32.73;;;0.10;1.00;;;;;;4979944;28;21415;-57
2022/12/16 00:39:05;;;;;;;55.17;32.10;;;0.10;1.00;;;;;;4971612;28;20454;-58
2022/12/16 00:41:30;;;;;;;58.80;34.67;;;0.20;1.00;;;;;;4973191;28;20586;-57
2022/12/16 00:43:56;;;;;;;60.50;34.40;;;0.10;1.00;;;;;;4972657;28;20306;-57
2022/12/16 00:46:21;;;;;;;64.57;35.13;;;0.10;1.00;;;;;;4972448;28;20212;-57
2022/12/16 00:48:47;;;;;;;53.07;31.63;;;0.10;1.00;;;;;;4972266;28;20875;-56
2022/12/16 00:51:12;;;;;;;66.10;35.90;;;0.20;1.00;;;;;;4972540;28;21025;-57
2022/12/16 00:53:38;;;;;;;55.73;34.00;;;0.10;1.00;;;;;;4973261;28;20196;-57
2022/12/16 00:56:06;;;;;;;64.90;36.60;;;0.10;1.00;;;;;;4973222;28;20353;-58
2022/12/16 00:58:32;;;;;;;59.73;34.93;;;0.00;1.00;;;;;;4970123;28;20196;-57
2022/12/16 01:00:58;;;;;;;57.17;32.13;;;0.10;1.00;;;;;;4975217;28;20452;-57
2022/12/16 01:03:23;;;;;;;58.53;32.80;;;0.10;1.00;;;;;;4972578;28;20191;-57
2022/12/16 01:05:49;;;;;;;61.47;31.40;;;0.00;1.00;;;;;;4975582;28;21257;-57
2022/12/16 01:08:14;;;;;;;52.17;32.87;;;0.00;1.00;;;;;;4974616;28;20565;-58
2022/12/16 01:10:40;;;;;;;51.33;30.80;;;0.00;1.00;;;;;;4977477;28;20201;-57
2022/12/16 01:13:06;;;;;;;59.20;33.60;;;0.00;1.00;;;;;;4972563;28;20234;-58
2022/12/16 01:15:31;;;;;;;57.90;32.37;;;0.40;1.00;;;;;;4972259;28;20188;-58
2022/12/16 01:17:57;;;;;;;47.43;30.70;;;0.00;1.00;;;;;;4973450;28;20210;-58
2022/12/16 01:20:23;;;;;;;53.37;30.17;;;0.00;1.00;;;;;;4980349;28;20914;-58
2022/12/16 01:22:48;;;;;;;49.00;31.63;;;0.00;1.00;;;;;;4982744;28;20195;-58
2022/12/16 01:25:14;;;;;;;63.13;32.80;;;-0.10;1.00;;;;;;4983377;28;20199;-58
2022/12/16 01:27:40;;;;;;;54.80;32.43;;;-0.10;1.00;;;;;;4978398;28;20220;-58
2022/12/16 01:30:07;;;;;;;53.30;29.87;;;-0.10;1.00;;;;;;4971654;28;20343;-57
2022/12/16 01:32:33;;;;;;;50.53;30.80;;;-0.20;1.00;;;;;;4984332;28;21026;-56
2022/12/16 01:34:59;;;;;;;54.30;32.30;;;-0.20;1.00;;;;;;4987723;28;20478;-58
2022/12/16 01:37:25;;;;;;;57.27;34.20;;;-0.30;1.00;;;;;;4990717;28;20185;-57
2022/12/16 01:39:51;;;;;;;67.93;35.40;;;-0.20;1.00;;;;;;4993639;28;20663;-58
2022/12/16 01:42:21;;;;;;;58.47;34.07;;;-0.20;1.00;;;;;;4971211;28;22129;-59
2022/12/16 01:44:49;;;;;;;57.33;34.17;;;-0.40;1.00;;;;;;4972524;28;20213;-59
2022/12/16 01:47:24;;;;;;;58.07;33.40;;;-0.30;1.00;;;;;;4972319;28;20972;-58
2022/12/16 01:50:03;;;;;;;64.47;33.77;;;-0.30;1.00;;;;;;4971364;28;20463;-58
2022/12/16 01:52:38;;;;;;;57.10;33.00;;;-0.50;1.00;;;;;;4971947;28;21083;-58
2022/12/16 01:55:33;;;;;;;56.93;32.80;;;-0.50;1.00;;;;;;4974135;28;20464;-59
2022/12/16 01:58:08;;;;;;;60.93;33.53;;;-0.50;1.00;;;;;;4968637;28;20465;-58
2022/12/16 02:00:35;;;;;;;57.63;33.57;;;-0.50;1.00;;;;;;4970682;28;20447;-59
2022/12/16 02:03:01;;;;;;;59.20;35.03;;;-0.50;1.00;;;;;;4971345;28;21016;-58
2022/12/16 02:05:28;;;;;;;63.10;34.47;;;-0.30;1.00;;;;;;4970166;28;21026;-57
2022/12/16 02:08:09;;;;;;;58.77;32.57;;;-0.30;1.00;;;;;;4970715;28;20459;-58
2022/12/16 02:10:40;;;;;;;57.67;31.83;;;-0.20;1.00;;;;;;4973417;28;20456;-57
2022/12/16 02:13:24;;;;;;;51.73;31.87;;;-0.20;1.00;;;;;;4971122;28;20612;-56
2022/12/16 02:16:07;;;;;;;53.33;32.80;;;-0.20;1.00;;;;;;4972646;28;21011;-57
2022/12/16 02:18:45;;;;;;;56.73;33.17;;;-0.30;1.00;;;;;;4971875;28;20456;-57
2022/12/16 02:21:40;;;;;;;55.50;33.40;;;-0.30;1.00;;;;;;4970493;28;20498;-58
2022/12/16 02:24:42;;;;;;;57.60;31.20;;;-0.30;1.00;;;;;;4969973;28;20426;-57
2022/12/16 02:27:38;;;;;;;58.33;31.97;;;-0.40;1.00;;;;;;4971722;28;20452;-57
2022/12/16 02:30:31;;;;;;;50.87;31.83;;;-0.30;1.00;;;;;;4979072;28;20454;-57
2022/12/16 02:33:23;;;;;;;52.47;31.03;;;-0.30;1.00;;;;;;4980806;28;20479;-57
2022/12/16 02:36:22;;;;;;;61.50;33.50;;;-0.30;1.00;;;;;;4983060;28;20472;-57
2022/12/16 02:38:57;;;;;;;57.50;34.27;;;-0.40;1.00;;;;;;4945296;28;20778;-57
2022/12/16 02:41:35;;;;;;;53.60;33.97;;;-0.40;1.00;;;;;;4971535;28;20446;-57
2022/12/16 02:44:05;;;;;;;59.30;30.40;;;-0.40;1.00;;;;;;4973806;28;20448;-57
2022/12/16 02:46:32;;;;;;;56.77;31.63;;;-0.30;1.00;;;;;;4974791;28;20538;-58
2022/12/16 02:49:11;;;;;;;64.60;34.03;;;-0.20;1.00;;;;;;4986710;28;20481;-58
2022/12/16 02:51:37;;;;;;;61.43;33.30;;;-0.30;1.00;;;;;;4986104;28;20486;-58
2022/12/16 02:54:05;;;;;;;52.53;30.47;;;-0.40;1.00;;;;;;4984897;28;20452;-58
2022/12/16 02:56:45;;;;;;;58.20;32.50;;;-0.40;1.00;;;;;;4978272;28;20575;-57
2022/12/16 02:59:16;;;;;;;60.40;32.67;;;-0.50;1.00;;;;;;4976261;28;20487;-59
2022/12/16 03:01:44;;;;;;;61.20;34.27;;;-0.50;1.00;;;;;;4975685;28;20454;-57
2022/12/16 03:04:14;;;;;;;54.60;31.47;;;-0.50;1.00;;;;;;4973978;28;20448;-59
2022/12/16 03:06:43;;;;;;;55.63;32.63;;;-0.50;1.00;;;;;;4975015;28;20470;-58
2022/12/16 03:09:12;;;;;;;53.63;30.20;;;-0.60;1.00;;;;;;4974663;28;20762;-57
2022/12/16 03:11:42;;;;;;;56.97;32.77;;;-0.60;1.00;;;;;;4974268;28;20484;-59
2022/12/16 03:14:12;;;;;;;50.43;29.93;;;-0.70;1.00;;;;;;4974042;28;20867;-57
2022/12/16 03:16:38;;;;;;;45.53;29.53;;;-0.60;1.00;;;;;;4990255;28;20462;-56
2022/12/16 03:19:08;;;;;;;54.80;31.87;;;-0.60;1.00;;;;;;4976754;28;20455;-57
2022/12/16 03:21:42;;;;;;;57.80;31.40;;;-0.60;1.00;;;;;;4986871;28;20199;-58
2022/12/16 03:24:12;;;;;;;59.63;31.03;;;-0.50;1.00;;;;;;4981515;28;20972;-57
2022/12/16 03:26:45;;;;;;;51.73;32.00;;;-0.50;1.00;;;;;;4984171;28;20454;-57
2022/12/16 03:29:24;;;;;;;64.23;33.10;;;-0.50;1.00;;;;;;4975763;28;20989;-57
2022/12/16 03:32:24;;;;;;;51.97;28.40;;;-0.50;1.00;;;;;;4974333;28;20553;-57
2022/12/16 03:35:10;;;;;;;47.07;29.80;;;-0.50;1.00;;;;;;4954107;28;20458;-58
2022/12/16 03:37:37;;;;;;;49.53;29.40;;;-0.60;1.00;;;;;;4973080;28;20461;-58
2022/12/16 03:40:06;;;;;;;54.33;31.57;;;-0.70;1.00;;;;;;4992728;28;20490;-57
2022/12/16 03:42:33;;;;;;;48.67;30.53;;;-0.70;1.00;;;;;;4980205;28;20503;-57
2022/12/16 03:44:59;;;;;;;59.73;30.10;;;-0.70;1.00;;;;;;4983012;28;20911;-57
2022/12/16 03:47:27;;;;;;;54.67;31.73;;;-0.70;1.00;;;;;;4974447;28;20489;-58
2022/12/16 03:49:53;;;;;;;52.43;28.73;;;-0.70;1.00;;;;;;4974002;28;20501;-58
2022/12/16 03:52:19;;;;;;;52.50;29.87;;;-0.60;1.00;;;;;;4971293;28;20908;-56
2022/12/16 03:54:44;;;;;;;47.80;29.60;;;-0.70;1.00;;;;;;4973600;28;20196;-58
2022/12/16 03:57:10;;;;;;;47.40;30.47;;;-0.80;1.00;;;;;;4972106;28;20185;-57
2022/12/16 03:59:35;;;;;;;44.60;27.20;;;-0.90;1.00;;;;;;4973870;28;20242;-57
2022/12/16 04:02:01;;;;;;;54.73;27.57;;;-0.80;1.00;;;;;;4957866;28;20210;-56
2022/12/16 04:04:27;;;;;;;55.17;30.50;;;-0.80;1.00;;;;;;4972274;28;20637;-56
2022/12/16 04:09:36;;;;;;;43.27;28.17;;;-0.70;1.00;;;;;;4973598;28;20248;-57
2022/12/16 04:25:53;;;;;;;47.07;28.40;;;-0.90;1.00;;;;;;4971951;28;21007;-58
2022/12/16 04:28:19;;;;;;;43.73;25.20;;;-0.80;1.00;;;;;;4973699;28;20448;-58
2022/12/16 04:30:44;;;;;;;43.53;26.23;;;-0.80;1.00;;;;;;4979037;28;20555;-57
